createdAt,value
2019-05-21T19:35:54.436Z,21.56
2019-05-21T19:38:14.839Z,21.56
2019-05-21T19:40:35.260Z,21.64
2019-05-21T19:42:55.917Z,21.70
2019-05-21T19:45:16.091Z,21.75
2019-05-21T19:47:37.273Z,21.81
2019-05-21T19:49:57.458Z,21.86
2019-05-21T19:52:30.831Z,21.92
2019-05-21T19:54:52.572Z,21.97
2019-05-21T19:57:12.960Z,22.02
2019-05-21T19:59:34.080Z,22.15
2019-05-21T20:01:55.336Z,22.15
2019-05-21T20:04:17.036Z,22.16
2019-05-21T20:06:37.796Z,22.17
2019-05-21T20:08:59.288Z,22.18
2019-05-21T20:11:20.098Z,22.20
2019-05-21T20:13:41.874Z,22.21
2019-05-21T20:16:02.413Z,22.22
2019-05-21T20:18:23.709Z,22.25
2019-05-21T20:20:44.248Z,22.26
2019-05-21T20:23:08.273Z,22.27
2019-05-21T20:25:27.188Z,22.28
2019-05-21T20:27:48.121Z,22.30
2019-05-21T20:30:12.626Z,22.30
2019-05-21T20:32:31.009Z,22.30
2019-05-21T20:34:52.865Z,22.28
2019-05-21T20:37:13.929Z,22.25
2019-05-21T20:39:35.117Z,22.24
2019-05-21T20:42:00.818Z,22.22
2019-05-21T20:44:21.312Z,22.21
2019-05-21T20:46:42.393Z,22.18
2019-05-21T20:49:03.304Z,22.16
2019-05-21T20:51:24.515Z,22.14
2019-05-21T20:53:45.128Z,22.12
2019-05-21T20:56:06.768Z,22.11
2019-05-21T20:58:28.027Z,22.10
2019-05-21T21:00:48.547Z,22.10
2019-05-21T21:03:09.374Z,22.09
2019-05-21T21:05:30.942Z,22.08
2019-05-21T21:07:51.643Z,22.07
2019-05-21T21:10:12.105Z,22.05
2019-05-21T21:12:32.830Z,22.04
2019-05-21T21:14:53.336Z,22.04
2019-05-21T21:17:14.802Z,22.03
2019-05-21T21:19:35.913Z,22.01
2019-05-21T21:21:56.482Z,22.01
2019-05-21T21:24:16.850Z,21.99
2019-05-21T21:26:37.955Z,21.99
2019-05-21T21:28:59.234Z,21.97
2019-05-21T21:31:20.003Z,21.95
2019-05-21T21:33:40.786Z,21.94
2019-05-21T21:36:02.241Z,21.94
2019-05-21T21:38:23.100Z,21.93
2019-05-21T21:40:47.213Z,21.91
2019-05-21T21:43:08.241Z,21.89
2019-05-21T21:45:29.521Z,21.90
2019-05-21T21:47:49.835Z,21.89
2019-05-21T21:50:11.133Z,21.88
2019-05-21T21:52:31.563Z,21.87
2019-05-21T21:54:52.006Z,21.88
2019-05-21T21:57:12.471Z,21.86
2019-05-21T21:59:34.040Z,21.86
2019-05-21T22:01:54.433Z,21.84
2019-05-21T22:04:15.699Z,21.84
2019-05-21T22:06:36.238Z,21.83
2019-05-21T22:08:57.593Z,21.82
2019-05-21T22:11:19.827Z,21.83
2019-05-21T22:13:40.884Z,21.82
2019-05-21T22:16:03.397Z,21.80
2019-05-21T22:18:24.729Z,21.80
2019-05-21T22:20:45.841Z,21.79
2019-05-21T22:23:06.591Z,21.78
2019-05-21T22:25:27.544Z,21.78
2019-05-21T22:27:48.281Z,21.77
2019-05-21T22:30:09.104Z,21.76
2019-05-21T22:32:30.051Z,21.76
2019-05-21T22:34:50.965Z,21.74
2019-05-21T22:37:12.258Z,21.74
2019-05-21T22:39:34.143Z,21.74
2019-05-21T22:41:55.274Z,21.73
2019-05-21T22:44:15.775Z,21.72
2019-05-21T22:46:36.600Z,21.72
2019-05-21T22:48:57.363Z,21.71
2019-05-21T22:51:17.954Z,21.71
2019-05-21T22:53:39.245Z,21.71
2019-05-21T22:56:00.732Z,21.70
2019-05-21T22:58:21.652Z,21.69
2019-05-21T23:00:42.335Z,21.68
2019-05-21T23:03:03.940Z,21.68
2019-05-21T23:05:25.046Z,21.68
2019-05-21T23:07:45.829Z,21.67
2019-05-21T23:10:06.781Z,21.66
2019-05-21T23:12:27.775Z,21.66
2019-05-21T23:14:49.053Z,21.65
2019-05-21T23:17:10.323Z,21.64
2019-05-21T23:19:30.906Z,21.63
2019-05-21T23:21:51.777Z,21.63
2019-05-21T23:24:13.093Z,21.62
2019-05-21T23:26:33.741Z,21.61
2019-05-21T23:28:55.627Z,21.61
2019-05-21T23:31:16.550Z,21.60
2019-05-21T23:33:37.282Z,21.60
2019-05-21T23:35:58.685Z,21.60
2019-05-21T23:38:19.743Z,21.58
2019-05-21T23:40:40.280Z,21.58
2019-05-21T23:43:01.239Z,21.58
2019-05-21T23:45:21.733Z,21.56
2019-05-21T23:47:42.366Z,21.56
2019-05-21T23:50:03.597Z,21.56
2019-05-21T23:52:24.471Z,21.55
2019-05-21T23:54:45.253Z,21.55
2019-05-21T23:57:06.205Z,21.55
2019-05-21T23:59:26.975Z,21.54
